Cunningham, Kansas
Current Conditions -  °F | °C
As of 2:35 PM on Tuesday 21 Oct 2014 (Local Time) from KPTT Reporting Station
Clear Clear  
Wind Chill: 81°   Ceiling: Unl
Heat Index: 81°   Visibility: 10mi
Dew Point: 54°   Wind: 14mph
Humidity: 39%   Direction: 190°S
Pressure: 30.04"   Gusts: 18mph
Location:  37.64°N, 98.43°W
Report Text: KPTT 211935Z AUTO 19012G16KT 10SM CLR 27/12 A3004 RMK AO2
Loading
Personal Weather Stations






























Interactive Weather Map
Tropical Storm Tracking
New forecast layout! Learn more

10-Day Weather Forecast

Advertisements
Track Severe Weather on mobile